Time;durP1;ratioP1;P1;durP2;ratioP2;P2;SDS_P1;SDS_P2;PMS_P1;PMS_P2;Temp;Humidity;BMP_temperature;BMP_pressure;BME280_temperature;BME280_humidity;BME280_pressure;Samples;Min_cycle;Max_cycle;Signal;HPM_P1;HPM_P2
2023/03/20 00:01:28;;;;;;;26.15;11.70;;;;;;;4.63;100.00;97764.41;5048969;28;20029;-81
2023/03/20 00:03:54;;;;;;;26.15;11.52;;;;;;;4.56;100.00;97751.41;5048702;28;20049;-82
2023/03/20 00:06:22;;;;;;;28.23;13.23;;;;;;;4.59;100.00;97757.47;5036971;28;20047;-82
2023/03/20 00:08:49;;;;;;;30.42;12.98;;;;;;;4.52;100.00;97750.69;5036584;28;20033;-82
2023/03/20 00:11:30;;;;;;;31.52;12.40;;;;;;;4.55;100.00;97750.56;5036827;28;20090;-82
2023/03/20 00:13:57;;;;;;;37.97;13.57;;;;;;;4.41;100.00;97739.56;5048385;28;20525;-81
2023/03/20 00:16:26;;;;;;;70.50;21.42;;;;;;;4.41;100.00;97751.94;5052938;28;20489;-81
2023/03/20 00:18:51;;;;;;;29.42;12.93;;;;;;;4.37;100.00;97752.03;5052918;28;20539;-81
2023/03/20 00:21:18;;;;;;;90.80;28.08;;;;;;;4.42;100.00;97741.31;5053103;28;20082;-82
2023/03/20 00:23:44;;;;;;;64.28;22.88;;;;;;;4.43;100.00;97745.66;5052657;28;20068;-82
2023/03/20 00:26:14;;;;;;;91.20;29.75;;;;;;;4.40;100.00;97740.47;5036614;28;20501;-82
2023/03/20 00:28:42;;;;;;;63.38;24.30;;;;;;;4.43;100.00;97732.44;5053236;28;20481;-82
2023/03/20 00:31:19;;;;;;;31.63;13.52;;;;;;;4.42;100.00;97735.16;5036073;28;20029;-83
2023/03/20 00:33:45;;;;;;;27.58;13.73;;;;;;;4.49;100.00;97734.03;5053159;28;20037;-83
2023/03/20 00:36:11;;;;;;;43.50;17.25;;;;;;;4.40;100.00;97729.88;5036252;28;20578;-82
2023/03/20 00:38:36;;;;;;;29.10;13.48;;;;;;;4.37;100.00;97730.88;5052904;28;20079;-83
2023/03/20 00:41:03;;;;;;;27.85;13.30;;;;;;;4.24;100.00;97723.41;5052872;28;20021;-82
2023/03/20 00:43:28;;;;;;;30.27;11.63;;;;;;;4.31;100.00;97738.16;5069525;28;20516;-83
2023/03/20 00:45:54;;;;;;;23.02;11.45;;;;;;;4.29;100.00;97721.47;5036530;28;20040;-83
2023/03/20 00:48:19;;;;;;;22.65;11.82;;;;;;;4.26;100.00;97722.44;5036642;28;20033;-81
2023/03/20 00:50:45;;;;;;;23.52;11.68;;;;;;;4.24;100.00;97708.41;5052635;28;20083;-81
2023/03/20 00:53:11;;;;;;;23.33;10.95;;;;;;;4.20;100.00;97706.75;5035951;28;20025;-82
2023/03/20 00:55:38;;;;;;;22.20;10.75;;;;;;;4.27;100.00;97713.59;5052812;28;20089;-82
2023/03/20 00:58:04;;;;;;;22.20;11.73;;;;;;;4.22;100.00;97706.69;5036098;28;20397;-82
2023/03/20 01:00:41;;;;;;;27.92;12.70;;;;;;;4.22;100.00;97704.91;5036014;28;20515;-81
2023/03/20 01:03:21;;;;;;;30.80;12.82;;;;;;;4.18;100.00;97707.75;5035958;28;20045;-82
2023/03/20 01:05:48;;;;;;;26.70;12.65;;;;;;;4.15;100.00;97713.97;5035851;28;20056;-82
2023/03/20 01:08:16;;;;;;;26.92;13.68;;;;;;;4.17;100.00;97703.34;5051609;28;20458;-82
2023/03/20 01:10:43;;;;;;;28.90;13.43;;;;;;;4.18;100.00;97698.00;5035693;28;20126;-82
2023/03/20 01:13:16;;;;;;;29.63;14.13;;;;;;;4.16;100.00;97698.97;5053255;28;20039;-83
2023/03/20 01:15:43;;;;;;;32.42;13.30;;;;;;;4.16;100.00;97691.03;5035707;28;20063;-82
2023/03/20 01:18:11;;;;;;;38.92;15.38;;;;;;;4.10;100.00;97699.19;5052672;28;20513;-82
2023/03/20 01:20:38;;;;;;;34.50;13.90;;;;;;;3.94;100.00;97693.53;5052434;28;20107;-83
2023/03/20 01:23:04;;;;;;;39.67;17.85;;;;;;;3.95;100.00;97702.34;5052372;28;20465;-81
2023/03/20 01:25:30;;;;;;;36.80;16.88;;;;;;;3.91;100.00;97703.38;5052000;28;20053;-83
2023/03/20 01:27:56;;;;;;;34.63;15.48;;;;;;;3.87;100.00;97694.69;5053351;28;20074;-83
2023/03/20 01:30:28;;;;;;;41.88;16.08;;;;;;;3.86;100.00;97690.28;5052073;28;20117;-82
2023/03/20 01:32:55;;;;;;;33.73;15.83;;;;;;;3.84;100.00;97690.31;5051943;28;20139;-82
2023/03/20 01:35:22;;;;;;;32.63;14.90;;;;;;;3.82;100.00;97689.53;5034972;28;20313;-82
2023/03/20 01:37:49;;;;;;;33.78;14.45;;;;;;;3.73;100.00;97684.53;5052190;28;20082;-81
2023/03/20 01:40:37;;;;;;;28.80;14.27;;;;;;;3.77;100.00;97698.53;5051769;28;20048;-81
2023/03/20 01:43:10;;;;;;;34.63;13.50;;;;;;;3.66;100.00;97683.00;5045528;28;20033;-81
2023/03/20 01:45:36;;;;;;;31.13;13.68;;;;;;;3.64;100.00;97697.19;5035122;28;20029;-82
2023/03/20 01:48:13;;;;;;;29.40;12.95;;;;;;;3.63;100.00;97693.69;5052075;28;20036;-81
2023/03/20 01:50:39;;;;;;;27.88;13.32;;;;;;;3.59;100.00;97692.06;5085573;28;20048;-81
2023/03/20 01:53:15;;;;;;;34.30;12.13;;;;;;;3.59;100.00;97697.34;5034876;28;20068;-82
2023/03/20 01:55:41;;;;;;;33.38;13.38;;;;;;;3.52;100.00;97690.53;5080211;28;20511;-82
2023/03/20 01:58:12;;;;;;;27.75;12.43;;;;;;;3.50;100.00;97705.59;5051853;28;20500;-81
2023/03/20 02:00:38;;;;;;;28.67;12.73;;;;;;;3.49;100.00;97703.84;5051844;28;20029;-82
2023/03/20 02:03:05;;;;;;;29.25;12.25;;;;;;;3.34;100.00;97701.69;5051914;28;20033;-82
2023/03/20 02:05:31;;;;;;;23.98;11.98;;;;;;;3.39;100.00;97712.97;5051472;28;20404;-82
2023/03/20 02:08:24;;;;;;;27.10;11.98;;;;;;;3.44;100.00;97713.69;5035097;28;20116;-83
2023/03/20 02:10:50;;;;;;;22.00;10.30;;;;;;;3.35;100.00;97692.84;5048618;28;20116;-82
2023/03/20 02:13:16;;;;;;;21.17;10.73;;;;;;;3.42;100.00;97701.41;5034378;28;20071;-82
2023/03/20 02:15:58;;;;;;;27.20;11.20;;;;;;;3.29;100.00;97687.75;5034762;28;20108;-83
2023/03/20 02:18:24;;;;;;;24.73;12.23;;;;;;;3.36;100.00;97702.47;5049873;28;20408;-83
2023/03/20 02:21:11;;;;;;;27.98;11.40;;;;;;;3.46;100.00;97706.59;5034414;28;20033;-82
2023/03/20 02:24:08;;;;;;;27.25;12.27;;;;;;;3.40;100.00;97698.84;5051155;28;20135;-81
2023/03/20 02:26:45;;;;;;;29.85;13.30;;;;;;;3.39;100.00;97702.38;5050739;28;21112;-80
2023/03/20 02:29:23;;;;;;;37.92;14.40;;;;;;;3.37;100.00;97706.88;5050712;28;20582;-80
2023/03/20 02:32:06;;;;;;;29.30;12.35;;;;;;;3.41;100.00;97708.50;5049136;28;20459;-82
2023/03/20 02:34:56;;;;;;;33.40;13.68;;;;;;;3.34;100.00;97699.03;5049195;28;20071;-80
2023/03/20 02:37:46;;;;;;;31.50;12.70;;;;;;;3.31;100.00;97695.63;5050332;28;20025;-80
2023/03/20 02:40:17;;;;;;;29.33;13.60;;;;;;;3.24;100.00;97689.66;5050421;28;20770;-81
2023/03/20 02:42:58;;;;;;;35.45;13.18;;;;;;;3.21;100.00;97695.03;5050792;28;20025;-82
2023/03/20 02:45:28;;;;;;;29.85;12.52;;;;;;;3.22;100.00;97697.63;5051241;28;20025;-82
2023/03/20 02:48:18;;;;;;;24.17;12.10;;;;;;;3.13;100.00;97681.19;5050261;28;20035;-80
2023/03/20 02:50:46;;;;;;;26.95;11.02;;;;;;;3.13;100.00;97687.34;5050478;28;20025;-81
2023/03/20 02:53:39;;;;;;;26.30;12.10;;;;;;;3.10;100.00;97682.16;5050246;28;20489;-82
2023/03/20 02:56:10;;;;;;;22.23;10.20;;;;;;;3.12;100.00;97679.44;5033111;28;20021;-82
2023/03/20 02:58:44;;;;;;;25.25;10.63;;;;;;;3.06;100.00;97677.88;5050123;28;20040;-80
2023/03/20 03:01:41;;;;;;;24.30;10.13;;;;;;;3.06;100.00;97685.78;5051487;28;20461;-81
2023/03/20 03:04:10;;;;;;;23.83;11.60;;;;;;;3.12;100.00;97695.31;5046939;28;20063;-80
2023/03/20 03:06:38;;;;;;;24.45;11.85;;;;;;;3.09;100.00;97690.13;5050004;28;20189;-81
2023/03/20 03:09:21;;;;;;;27.25;12.50;;;;;;;3.11;100.00;97693.56;5049878;28;20031;-80
2023/03/20 03:12:09;;;;;;;25.67;11.10;;;;;;;3.08;100.00;97691.03;5049907;28;20097;-81
2023/03/20 03:14:41;;;;;;;25.60;11.57;;;;;;;3.14;100.00;97704.03;5033387;28;20412;-80
2023/03/20 03:17:09;;;;;;;29.30;12.20;;;;;;;3.08;100.00;97691.03;5049964;28;20041;-80
2023/03/20 03:19:36;;;;;;;22.63;11.10;;;;;;;3.12;100.00;97698.81;5049922;28;20025;-80
2023/03/20 03:22:03;;;;;;;23.52;12.32;;;;;;;3.02;100.00;97689.44;5049732;28;20032;-81
2023/03/20 03:24:34;;;;;;;43.35;15.02;;;;;;;2.96;100.00;97689.63;5049390;28;20069;-82
2023/03/20 03:27:06;;;;;;;25.83;11.90;;;;;;;3.04;100.00;97695.56;5046456;28;20052;-81
2023/03/20 03:29:35;;;;;;;36.80;13.65;;;;;;;3.02;100.00;97694.72;5033317;28;20037;-80
2023/03/20 03:32:03;;;;;;;32.47;12.35;;;;;;;2.96;100.00;97683.47;5049122;28;20028;-81
2023/03/20 03:34:30;;;;;;;28.05;13.25;;;;;;;2.91;100.00;97669.53;5049915;28;20040;-81
2023/03/20 03:37:10;;;;;;;24.65;11.60;;;;;;;2.99;100.00;97686.00;5049481;28;20021;-80
2023/03/20 03:39:40;;;;;;;26.30;11.32;;;;;;;2.96;100.00;97694.91;5048834;28;20024;-81
2023/03/20 03:42:08;;;;;;;27.58;12.48;;;;;;;2.91;100.00;97680.09;5066159;28;20163;-80
2023/03/20 03:44:33;;;;;;;29.02;12.50;;;;;;;2.90;100.00;97678.34;5032853;28;20457;-80
2023/03/20 03:47:06;;;;;;;30.83;11.60;;;;;;;2.92;100.00;97687.13;5049489;28;20040;-81
2023/03/20 03:49:43;;;;;;;32.67;12.70;;;;;;;2.95;100.00;97681.75;5049432;28;20021;-81
2023/03/20 03:52:16;;;;;;;32.28;13.00;;;;;;;2.98;100.00;97681.66;5049750;28;20044;-81
2023/03/20 03:55:04;;;;;;;32.40;13.77;;;;;;;2.93;100.00;97688.84;5032803;28;20036;-81
2023/03/20 03:57:55;;;;;;;30.48;14.40;;;;;;;2.97;100.00;97690.50;5049362;28;20413;-80
2023/03/20 04:00:22;;;;;;;44.50;15.40;;;;;;;2.94;100.00;97685.28;5029226;28;20520;-80
2023/03/20 04:02:51;;;;;;;32.88;14.50;;;;;;;2.94;100.00;97687.94;5049498;28;20053;-81
2023/03/20 04:05:18;;;;;;;31.58;14.98;;;;;;;2.94;100.00;97693.22;5033361;28;20025;-81
2023/03/20 04:07:45;;;;;;;41.10;16.85;;;;;;;2.95;100.00;97692.31;5033027;28;20017;-82
2023/03/20 04:10:11;;;;;;;47.25;19.63;;;;;;;2.77;100.00;97669.09;5049640;28;20133;-81
2023/03/20 04:12:39;;;;;;;73.15;22.83;;;;;;;2.85;100.00;97685.56;5049448;28;20468;-81
2023/03/20 04:15:06;;;;;;;55.55;20.83;;;;;;;2.85;100.00;97696.13;5049033;28;20020;-80
2023/03/20 04:17:32;;;;;;;98.80;27.27;;;;;;;2.78;100.00;97676.94;5066006;28;20036;-80
2023/03/20 04:19:58;;;;;;;58.28;20.25;;;;;;;2.70;100.00;97676.31;5065648;28;20029;-80
2023/03/20 04:22:24;;;;;;;124.10;30.58;;;;;;;2.68;100.00;97680.75;5048981;28;20040;-79
2023/03/20 04:24:50;;;;;;;59.85;21.02;;;;;;;2.60;100.00;97680.13;5049024;28;20037;-81
2023/03/20 04:27:16;;;;;;;53.00;20.83;;;;;;;2.56;100.00;97674.06;5033457;28;20033;-83
2023/03/20 04:29:42;;;;;;;38.97;16.52;;;;;;;2.58;100.00;97677.53;5049863;28;20025;-80
2023/03/20 04:32:07;;;;;;;48.28;16.30;;;;;;;2.58;100.00;97677.53;5050967;28;20133;-83
2023/03/20 04:34:33;;;;;;;38.13;15.80;;;;;;;2.55;100.00;97672.31;5050787;28;20060;-81
2023/03/20 04:37:00;;;;;;;38.63;15.30;;;;;;;2.53;100.00;97682.06;5051217;28;20512;-84
2023/03/20 04:39:26;;;;;;;39.83;14.63;;;;;;;2.65;100.00;97684.34;5050196;28;20484;-80
2023/03/20 04:41:52;;;;;;;44.55;14.55;;;;;;;2.68;100.00;97684.28;5050162;28;20420;-82
2023/03/20 04:44:17;;;;;;;35.38;15.23;;;;;;;2.62;100.00;97681.81;5053010;28;20059;-85
2023/03/20 04:46:43;;;;;;;47.58;15.65;;;;;;;2.73;100.00;97681.50;5054080;28;20032;-81
2023/03/20 04:49:08;;;;;;;47.50;16.08;;;;;;;2.88;100.00;97682.84;5052993;28;20029;-81
2023/03/20 04:51:34;;;;;;;37.67;15.63;;;;;;;2.92;100.00;97676.56;5053207;28;20416;-81
2023/03/20 04:53:59;;;;;;;38.47;18.15;;;;;;;3.00;100.00;97682.47;5037184;28;20028;-80
2023/03/20 04:56:25;;;;;;;47.92;17.45;;;;;;;3.16;100.00;97681.09;5053300;28;20119;-80
2023/03/20 04:58:51;;;;;;;46.05;19.48;;;;;;;3.30;100.00;97684.16;5053275;28;20064;-80
2023/03/20 05:01:16;;;;;;;71.38;27.73;;;;;;;3.41;100.00;97682.06;5053180;28;20029;-81
2023/03/20 05:03:42;;;;;;;49.72;20.27;;;;;;;3.47;100.00;97679.25;5052983;28;20040;-80
2023/03/20 05:06:08;;;;;;;44.63;18.10;;;;;;;3.64;100.00;97676.03;5052572;28;20090;-79
2023/03/20 05:08:33;;;;;;;52.90;20.05;;;;;;;3.75;100.00;97680.06;5036167;28;20060;-81
2023/03/20 05:10:59;;;;;;;55.42;20.92;;;;;;;3.87;100.00;97670.88;5052792;28;20064;-81
2023/03/20 05:13:24;;;;;;;56.65;21.67;;;;;;;4.17;100.00;97674.25;5052623;28;20060;-79
2023/03/20 05:15:50;;;;;;;55.92;25.00;;;;;;;4.28;100.00;97667.66;5035886;28;20053;-80
2023/03/20 05:18:16;;;;;;;70.60;32.55;;;;;;;4.61;100.00;97670.03;5052547;28;20523;-78
2023/03/20 05:20:42;;;;;;;62.85;27.83;;;;;;;4.98;100.00;97674.81;5052645;28;20032;-79
2023/03/20 05:23:07;;;;;;;83.68;31.63;;;;;;;5.30;100.00;97653.22;5052475;28;20389;-79
2023/03/20 05:25:33;;;;;;;77.35;30.92;;;;;;;5.90;100.00;97652.56;5052056;28;20382;-80
2023/03/20 05:27:58;;;;;;;75.93;28.48;;;;;;;6.44;100.00;97650.19;5035481;28;20021;-81
2023/03/20 05:30:24;;;;;;;76.60;31.45;;;;;;;6.83;100.00;97644.88;5051710;28;20417;-81
2023/03/20 05:32:51;;;;;;;75.43;31.80;;;;;;;6.92;100.00;97640.97;5035647;28;20135;-79
2023/03/20 05:35:17;;;;;;;75.13;33.33;;;;;;;7.19;100.00;97634.38;5035655;28;20106;-81
2023/03/20 05:37:42;;;;;;;84.10;33.53;;;;;;;7.54;100.00;97633.53;5052104;28;20029;-80
2023/03/20 05:40:11;;;;;;;67.47;28.63;;;;;;;7.80;100.00;97634.06;5052205;28;20036;-81
2023/03/20 05:42:51;;;;;;;67.18;29.80;;;;;;;7.64;100.00;97600.19;5052611;28;20057;-82
2023/03/20 05:45:17;;;;;;;70.95;27.17;;;;;;;8.27;100.00;97637.00;5068652;28;20108;-82
2023/03/20 05:47:43;;;;;;;66.47;26.88;;;;;;;8.37;100.00;97638.25;5052016;28;20473;-84
2023/03/20 05:50:10;;;;;;;69.25;27.83;;;;;;;8.92;99.28;97618.38;5052177;28;20386;-80
2023/03/20 05:52:41;;;;;;;81.18;29.30;;;;;;;8.97;95.97;97612.81;5052286;28;20037;-83
2023/03/20 05:55:09;;;;;;;67.50;28.98;;;;;;;8.88;95.64;97608.00;5051928;28;20025;-81
2023/03/20 05:57:42;;;;;;;65.68;29.20;;;;;;;9.06;96.44;97617.66;5052155;28;20049;-83
2023/03/20 06:00:38;;;;;;;58.20;26.70;;;;;;;9.63;92.81;97611.72;5052520;28;20028;-81
2023/03/20 06:03:05;;;;;;;58.78;26.73;;;;;;;9.90;89.43;97581.69;5051738;28;20070;-81
2023/03/20 06:05:32;;;;;;;64.85;27.33;;;;;;;10.24;87.63;97594.81;5051617;28;20059;-81
2023/03/20 06:07:58;;;;;;;55.45;25.55;;;;;;;10.57;85.85;97598.13;5034843;28;20039;-81
2023/03/20 06:10:23;;;;;;;45.38;24.08;;;;;;;10.69;85.84;97588.47;5052007;28;20501;-80
2023/03/20 06:12:49;;;;;;;59.83;24.83;;;;;;;11.08;83.32;97595.81;5068063;28;20028;-80
2023/03/20 06:15:15;;;;;;;60.78;29.02;;;;;;;11.28;81.87;97590.94;5051365;28;20082;-81
2023/03/20 06:17:40;;;;;;;59.60;30.15;;;;;;;11.28;79.88;97587.41;5051638;28;20508;-81
2023/03/20 06:20:07;;;;;;;56.63;29.17;;;;;;;11.40;80.01;97594.66;5034894;28;20032;-82
2023/03/20 06:22:34;;;;;;;70.60;30.73;;;;;;;11.70;78.34;97594.50;5051560;28;20036;-82
2023/03/20 06:25:00;;;;;;;68.68;30.75;;;;;;;12.16;74.46;97595.84;5034161;28;20188;-82
2023/03/20 06:27:26;;;;;;;73.20;30.40;;;;;;;12.45;72.93;97592.06;5034799;28;20452;-82
2023/03/20 06:29:51;;;;;;;88.35;35.13;;;;;;;12.65;71.07;97587.09;5034514;28;20113;-83
2023/03/20 06:32:17;;;;;;;89.30;37.42;;;;;;;13.19;68.91;97582.41;5034951;28;20024;-83
2023/03/20 06:34:42;;;;;;;85.65;36.47;;;;;;;13.12;66.61;97563.16;5034644;28;20024;-82
2023/03/20 06:37:08;;;;;;;80.63;36.15;;;;;;;14.17;62.79;97577.72;5034341;28;20028;-83
2023/03/20 06:39:33;;;;;;;67.60;33.20;;;;;;;14.64;59.74;97566.88;5051063;28;20047;-82
2023/03/20 06:41:59;;;;;;;77.10;36.08;;;;;;;15.28;57.23;97561.78;5050973;28;20408;-82
2023/03/20 06:44:25;;;;;;;76.65;35.92;;;;;;;16.00;54.63;97559.44;5052220;28;20110;-82
2023/03/20 06:46:51;;;;;;;72.63;34.83;;;;;;;16.08;53.63;97548.88;5035136;28;20025;-82
2023/03/20 06:49:17;;;;;;;63.15;32.42;;;;;;;16.44;52.51;97543.06;5051783;28;20040;-82
2023/03/20 06:51:44;;;;;;;66.20;32.35;;;;;;;15.84;53.76;97532.03;5050847;28;20502;-84
2023/03/20 06:54:09;;;;;;;67.15;34.00;;;;;;;15.90;54.92;97532.41;5050526;28;20417;-81
2023/03/20 06:56:35;;;;;;;83.40;36.13;;;;;;;16.23;53.69;97534.09;5050091;28;20035;-82
2023/03/20 06:59:00;;;;;;;79.18;35.50;;;;;;;15.86;54.49;97519.28;5050636;28;20461;-83
2023/03/20 07:01:26;;;;;;;62.50;30.55;;;;;;;15.96;54.66;97525.63;5051599;28;20036;-83
2023/03/20 07:03:52;;;;;;;52.40;28.60;;;;;;;16.51;53.66;97517.25;5050962;28;20039;-82
2023/03/20 07:06:18;;;;;;;57.55;30.77;;;;;;;15.96;54.58;97512.13;5049659;28;20086;-81
2023/03/20 07:08:44;;;;;;;48.85;26.42;;;;;;;15.35;57.18;97509.06;5050405;28;20416;-84
2023/03/20 07:11:10;;;;;;;50.40;26.58;;;;;;;15.90;56.26;97523.44;5050793;28;20025;-82
2023/03/20 07:13:42;;;;;;;62.88;25.77;;;;;;;16.64;54.24;97507.09;5034168;28;20017;-84
2023/03/20 07:16:07;;;;;;;48.38;23.98;;;;;;;16.73;53.52;97494.66;5050679;28;20111;-83
2023/03/20 07:18:33;;;;;;;45.95;21.00;;;;;;;17.05;52.44;97499.91;5050062;28;20104;-82
2023/03/20 07:21:01;;;;;;;42.42;19.98;;;;;;;17.38;50.85;97498.75;5033715;28;20460;-83
2023/03/20 07:23:28;;;;;;;35.17;19.67;;;;;;;17.06;51.58;97490.81;5032177;28;20063;-83
2023/03/20 07:25:55;;;;;;;34.97;20.77;;;;;;;17.04;51.25;97479.31;5050412;28;20071;-83
2023/03/20 07:28:21;;;;;;;56.53;22.73;;;;;;;17.56;51.13;97491.72;5050008;28;20457;-82
2023/03/20 07:30:46;;;;;;;58.45;24.58;;;;;;;17.19;50.78;97477.94;5033703;28;20416;-83
2023/03/20 07:33:12;;;;;;;49.55;24.13;;;;;;;16.67;52.60;97489.78;5033101;28;20037;-83
2023/03/20 07:35:38;;;;;;;47.35;25.35;;;;;;;16.97;52.89;97478.13;5050213;28;20025;-82
2023/03/20 07:38:05;;;;;;;50.75;25.33;;;;;;;17.76;50.86;97486.19;5050010;28;20079;-84
2023/03/20 07:40:31;;;;;;;50.88;25.63;;;;;;;18.28;49.31;97486.75;5050300;28;20451;-83
2023/03/20 07:42:57;;;;;;;42.15;23.15;;;;;;;18.16;49.41;97479.78;5050517;28;20051;-84
2023/03/20 07:45:22;;;;;;;44.47;23.27;;;;;;;17.70;51.11;97486.75;5033874;28;20033;-83
2023/03/20 07:47:48;;;;;;;57.47;24.95;;;;;;;17.66;51.18;97482.59;5050456;28;20024;-83
2023/03/20 07:50:14;;;;;;;45.50;22.08;;;;;;;18.25;50.34;97492.44;5050054;28;20029;-83
2023/03/20 07:52:40;;;;;;;44.95;23.48;;;;;;;18.27;50.10;97475.06;5033526;28;20033;-82
2023/03/20 07:55:06;;;;;;;38.05;20.88;;;;;;;18.54;49.12;97485.19;5033458;28;20083;-83
2023/03/20 07:57:32;;;;;;;43.08;19.95;;;;;;;19.24;48.87;97487.38;5050290;28;20028;-83
2023/03/20 07:59:57;;;;;;;45.85;19.55;;;;;;;19.69;47.47;97484.69;5066791;28;20485;-82
2023/03/20 08:02:23;;;;;;;38.40;18.70;;;;;;;20.51;45.86;97470.91;5033002;28;20079;-82
2023/03/20 08:04:49;;;;;;;34.05;19.42;;;;;;;20.69;44.48;97469.00;5050383;28;20029;-82
2023/03/20 08:07:14;;;;;;;34.78;18.90;;;;;;;20.89;44.32;97466.91;5051208;28;20052;-83
2023/03/20 08:09:40;;;;;;;35.47;19.77;;;;;;;20.52;45.07;97465.31;5033252;28;20021;-84
2023/03/20 08:12:06;;;;;;;34.63;18.42;;;;;;;20.73;45.25;97475.84;5051084;28;20029;-82
2023/03/20 08:14:31;;;;;;;35.70;18.48;;;;;;;21.10;43.82;97464.69;5050362;28;20508;-82
2023/03/20 08:16:57;;;;;;;30.05;15.75;;;;;;;19.75;44.71;97448.78;5052070;28;20033;-83
2023/03/20 08:19:23;;;;;;;28.38;13.07;;;;;;;19.41;46.12;97466.75;5037786;28;20048;-84
2023/03/20 08:21:50;;;;;;;23.02;12.82;;;;;;;19.37;46.07;97457.19;5070719;28;20035;-83
2023/03/20 08:24:16;;;;;;;21.25;12.73;;;;;;;20.09;45.05;97473.41;5054402;28;20051;-82
2023/03/20 08:26:42;;;;;;;18.38;10.15;;;;;;;19.66;44.77;97454.28;5071558;28;20064;-82
2023/03/20 08:29:08;;;;;;;22.35;10.23;;;;;;;21.22;43.33;97476.13;5054841;28;20523;-83
2023/03/20 08:31:34;;;;;;;21.50;8.88;;;;;;;22.36;40.99;97483.63;5055024;28;20050;-83
2023/03/20 08:33:59;;;;;;;16.33;9.45;;;;;;;23.43;39.52;97475.97;5054318;28;20028;-83
2023/03/20 08:36:25;;;;;;;14.43;8.23;;;;;;;22.19;40.06;97446.44;5054135;28;20025;-82
2023/03/20 08:38:50;;;;;;;11.35;7.28;;;;;;;22.25;40.01;97452.09;5037270;28;20032;-83
2023/03/20 08:41:17;;;;;;;16.70;7.88;;;;;;;23.26;38.43;97464.22;5053758;28;20020;-83
2023/03/20 08:43:42;;;;;;;10.32;6.63;;;;;;;24.04;36.82;97454.13;5053581;28;20397;-82
2023/03/20 08:46:08;;;;;;;17.83;7.25;;;;;;;23.06;38.34;97420.13;5070423;28;20021;-81
2023/03/20 08:48:34;;;;;;;9.65;6.60;;;;;;;23.11;38.13;97422.31;5053154;28;20021;-82
2023/03/20 08:51:00;;;;;;;15.68;8.25;;;;;;;23.64;37.57;97432.50;5053202;28;20077;-83
2023/03/20 08:53:26;;;;;;;11.57;6.22;;;;;;;23.86;36.09;97418.03;5053172;28;20033;-81
2023/03/20 08:55:52;;;;;;;10.00;5.80;;;;;;;23.74;35.85;97411.28;5053539;28;20024;-82
2023/03/20 08:58:19;;;;;;;15.00;6.88;;;;;;;24.53;34.73;97420.94;5053447;28;20170;-83
2023/03/20 09:00:44;;;;;;;10.23;6.03;;;;;;;23.49;35.08;97390.59;5052859;28;20025;-83
2023/03/20 09:03:13;;;;;;;15.25;8.23;;;;;;;23.86;35.63;97409.00;5053133;28;20036;-82
2023/03/20 09:05:40;;;;;;;12.55;6.72;;;;;;;23.36;35.77;97388.41;5069215;28;20529;-82
2023/03/20 09:08:05;;;;;;;10.75;7.25;;;;;;;24.04;35.51;97413.13;5036138;28;20024;-82
2023/03/20 09:10:31;;;;;;;13.52;6.95;;;;;;;25.52;33.58;97424.16;5069004;28;20021;-82
2023/03/20 09:12:57;;;;;;;16.30;6.97;;;;;;;26.32;32.56;97421.28;5035487;28;20025;-82
2023/03/20 09:15:22;;;;;;;15.20;7.07;;;;;;;27.07;31.24;97405.00;5052234;28;20037;-82
2023/03/20 09:17:48;;;;;;;10.40;6.55;;;;;;;27.28;30.83;97401.34;5035496;28;20475;-82
2023/03/20 09:20:13;;;;;;;10.23;5.95;;;;;;;27.39;30.16;97387.88;5053421;28;20059;-81
2023/03/20 09:22:41;;;;;;;10.77;6.43;;;;;;;27.42;30.02;97387.50;5052365;28;20029;-82
2023/03/20 09:25:07;;;;;;;13.20;6.57;;;;;;;27.89;29.30;97386.63;5053064;28;20120;-82
2023/03/20 09:27:33;;;;;;;10.60;5.78;;;;;;;27.46;29.36;97360.47;5051975;28;20074;-82
2023/03/20 09:29:58;;;;;;;11.38;8.82;;;;;;;27.80;30.15;97378.75;5034729;28;20024;-81
2023/03/20 09:32:24;;;;;;;10.35;6.18;;;;;;;28.21;29.32;97365.72;5035620;28;20032;-82
2023/03/20 09:34:50;;;;;;;11.68;5.60;;;;;;;28.42;28.45;97360.06;5051661;28;20404;-82
2023/03/20 09:37:15;;;;;;;11.27;6.40;;;;;;;29.16;27.71;97368.03;5051990;28;20036;-82
2023/03/20 09:39:41;;;;;;;10.07;6.05;;;;;;;29.99;27.08;97360.72;5052108;28;20025;-81
2023/03/20 09:42:40;;;;;;;12.15;6.15;;;;;;;30.60;26.28;97369.22;5068785;28;20477;-82
2023/03/20 09:45:36;;;;;;;13.02;6.80;;;;;;;30.57;26.29;97351.19;5053083;28;20063;-82
2023/03/20 09:48:17;;;;;;;10.35;5.43;;;;;;;28.53;28.13;97306.25;5052014;28;20488;-82
2023/03/20 09:50:42;;;;;;;9.57;5.35;;;;;;;28.40;28.00;97304.34;5068588;28;20082;-82
2023/03/20 09:53:41;;;;;;;9.07;4.78;;;;;;;29.18;27.97;97331.97;5068530;28;20452;-85
2023/03/20 09:56:15;;;;;;;9.15;5.63;;;;;;;30.27;27.17;97336.31;5013061;28;20477;-82
2023/03/20 09:58:41;;;;;;;8.95;4.90;;;;;;;30.26;26.30;97318.06;5034401;28;20028;-80
2023/03/20 10:01:11;;;;;;;20.17;5.40;;;;;;;30.85;25.59;97308.44;5051649;28;20084;-80
2023/03/20 10:03:50;;;;;;;10.63;4.13;;;;;;;30.20;25.42;97287.75;5050855;28;20477;-81
2023/03/20 10:06:16;;;;;;;7.00;4.78;;;;;;;30.81;25.55;97304.41;5067778;28;20086;-81
2023/03/20 10:08:44;;;;;;;11.65;5.43;;;;;;;31.65;25.28;97312.84;5067917;28;20029;-81
2023/03/20 10:11:15;;;;;;;13.52;5.10;;;;;;;31.96;24.81;97304.25;5052249;28;20029;-80
2023/03/20 10:13:46;;;;;;;8.52;5.25;;;;;;;30.41;25.18;97257.88;5056042;28;20021;-80
2023/03/20 10:16:31;;;;;;;10.23;5.10;;;;;;;30.06;25.49;97262.16;5070806;28;20033;-80
2023/03/20 10:19:12;;;;;;;6.63;4.50;;;;;;;31.07;24.62;97276.53;5051208;28;20059;-80
2023/03/20 10:21:45;;;;;;;15.30;4.75;;;;;;;32.31;23.40;97278.63;5052236;28;20036;-81
2023/03/20 10:24:18;;;;;;;13.40;4.57;;;;;;;33.79;21.89;97288.13;5067803;28;20358;-79
2023/03/20 10:26:45;;;;;;;10.48;3.80;;;;;;;31.87;21.77;97219.88;5036421;28;20484;-80
2023/03/20 10:29:32;;;;;;;9.55;4.00;;;;;;;30.22;22.52;97198.13;5037764;28;20051;-81
2023/03/20 10:32:19;;;;;;;13.63;4.20;;;;;;;31.84;22.20;97230.63;5071652;28;20059;-80
2023/03/20 10:35:12;;;;;;;4.43;2.70;;;;;;;32.46;17.41;97185.66;5069458;28;20013;-79
2023/03/20 10:38:09;;;;;;;3.25;2.17;;;;;;;33.67;17.07;97213.25;5054258;28;20104;-80
2023/03/20 10:40:37;;;;;;;8.85;2.53;;;;;;;33.31;17.60;97185.03;5052065;28;20041;-80
2023/03/20 10:43:15;;;;;;;6.95;4.57;;;;;;;33.14;17.84;97180.28;5056170;28;20051;-80
2023/03/20 10:45:45;;;;;;;3.40;2.50;;;;;;;32.38;18.05;97146.41;5056647;28;20500;-81
2023/03/20 10:48:34;;;;;;;7.55;3.53;;;;;;;33.77;18.78;97198.72;5052440;28;20101;-79
2023/03/20 10:51:01;;;;;;;10.88;3.50;;;;;;;35.03;17.37;97199.91;5053113;28;20044;-80
2023/03/20 10:53:46;;;;;;;7.22;3.95;;;;;;;35.75;16.41;97192.16;5051734;28;20062;-80
2023/03/20 10:56:15;;;;;;;6.50;2.97;;;;;;;35.67;16.10;97171.19;5045460;28;20411;-80
2023/03/20 10:58:44;;;;;;;7.85;2.80;;;;;;;35.59;16.23;97168.91;5050317;28;20020;-81
2023/03/20 11:01:09;;;;;;;4.97;2.35;;;;;;;35.38;16.65;97157.78;5033713;28;20025;-80
2023/03/20 11:03:38;;;;;;;4.20;2.97;;;;;;;35.15;16.67;97153.34;5036112;28;20039;-80
2023/03/20 11:06:16;;;;;;;6.25;3.05;;;;;;;34.47;16.70;97137.94;5051375;28;20464;-79
2023/03/20 11:08:46;;;;;;;12.57;3.90;;;;;;;33.81;16.73;97115.78;5066590;28;20033;-80
2023/03/20 11:11:12;;;;;;;4.80;3.50;;;;;;;34.05;16.96;97120.91;5050340;28;20039;-82
2023/03/20 11:13:41;;;;;;;4.03;3.10;;;;;;;33.66;16.57;97103.31;5052118;28;20191;-83
2023/03/20 11:16:15;;;;;;;4.07;2.50;;;;;;;34.51;16.64;97116.91;5033445;28;20071;-83
2023/03/20 11:18:41;;;;;;;3.65;2.47;;;;;;;34.60;16.91;97118.16;5051567;28;20115;-84
2023/03/20 11:21:09;;;;;;;3.60;2.78;;;;;;;34.84;16.18;97113.19;5049563;28;20064;-83
2023/03/20 11:23:35;;;;;;;7.53;2.38;;;;;;;34.51;16.41;97100.22;5033130;28;20064;-84
2023/03/20 11:26:05;;;;;;;5.28;2.60;;;;;;;35.01;16.29;97118.66;5050010;28;20147;-83
2023/03/20 11:28:37;;;;;;;4.03;2.70;;;;;;;35.08;16.60;97109.00;5033722;28;20416;-84
2023/03/20 11:31:05;;;;;;;5.40;2.90;;;;;;;35.14;16.76;97101.59;5047825;28;20500;-84